createdAt,value
2023-04-15T00:02:19.643Z,301.27
2023-04-15T00:04:47.996Z,286.53
2023-04-15T00:07:16.361Z,361.93
2023-04-15T00:09:44.652Z,432.50
2023-04-15T00:12:12.503Z,446.20
2023-04-15T00:14:40.240Z,442.60
2023-04-15T00:17:08.141Z,473.43
2023-04-15T00:19:37.481Z,473.70
2023-04-15T00:22:07.066Z,469.83
2023-04-15T00:24:34.658Z,435.00
2023-04-15T00:27:02.321Z,427.73
2023-04-15T00:29:30.459Z,417.83
2023-04-15T00:31:59.455Z,426.10
2023-04-15T00:34:28.838Z,428.30
2023-04-15T00:36:58.303Z,418.20
2023-04-15T00:39:25.956Z,429.07
2023-04-15T00:41:54.439Z,427.27
2023-04-15T00:44:22.025Z,438.90
2023-04-15T00:46:52.946Z,431.20
2023-04-15T00:49:20.914Z,438.33
2023-04-15T00:51:49.115Z,439.90
2023-04-15T00:54:18.270Z,430.37
2023-04-15T00:56:46.196Z,421.13
2023-04-15T00:59:15.637Z,418.90
2023-04-15T01:01:45.330Z,418.60
2023-04-15T01:04:13.330Z,408.80
2023-04-15T01:06:41.150Z,416.40
2023-04-15T01:09:08.794Z,405.77
2023-04-15T01:11:37.757Z,395.40
2023-04-15T01:14:05.945Z,381.43
2023-04-15T01:16:33.597Z,373.93
2023-04-15T01:19:01.656Z,368.73
2023-04-15T01:21:30.001Z,384.07
2023-04-15T01:23:58.529Z,380.03
2023-04-15T01:26:28.284Z,355.90
2023-04-15T01:28:56.375Z,356.30
2023-04-15T01:31:24.167Z,381.30
2023-04-15T01:33:51.920Z,387.60
2023-04-15T01:36:19.581Z,370.07
2023-04-15T01:38:47.629Z,336.90
2023-04-15T01:41:15.510Z,352.50
2023-04-15T01:43:44.460Z,303.40
2023-04-15T01:46:12.777Z,357.60
2023-04-15T01:48:40.439Z,289.27
2023-04-15T01:51:08.226Z,329.30
2023-04-15T01:53:35.935Z,283.67
2023-04-15T01:56:03.677Z,334.93
2023-04-15T01:58:31.427Z,243.67
2023-04-15T02:01:00.664Z,313.40
2023-04-15T02:03:29.164Z,281.67
2023-04-15T02:05:57.604Z,295.63
2023-04-15T02:08:25.237Z,279.37
2023-04-15T02:10:53.238Z,308.93
2023-04-15T02:13:20.965Z,289.13
2023-04-15T02:15:49.892Z,301.47
2023-04-15T02:18:18.926Z,269.60
2023-04-15T02:20:47.148Z,265.63
2023-04-15T02:23:15.186Z,290.30
2023-04-15T02:25:42.828Z,269.47
2023-04-15T02:28:21.266Z,277.30
2023-04-15T02:30:50.910Z,279.77
2023-04-15T02:33:20.213Z,275.47
2023-04-15T02:35:47.793Z,278.90
2023-04-15T02:38:17.153Z,274.83
2023-04-15T02:40:44.878Z,290.37
2023-04-15T02:43:12.477Z,264.10
2023-04-15T02:45:40.475Z,273.10
2023-04-15T02:48:08.115Z,296.87
2023-04-15T02:50:38.791Z,277.40
2023-04-15T02:53:06.533Z,282.00
2023-04-15T02:55:34.478Z,276.83
2023-04-15T02:58:02.071Z,276.70
2023-04-15T03:00:29.663Z,249.63
2023-04-15T03:03:00.776Z,228.13
2023-04-15T03:05:28.814Z,202.60
2023-04-15T03:07:57.882Z,150.63
2023-04-15T03:10:25.498Z,89.13
2023-04-15T03:12:53.135Z,57.63
2023-04-15T03:15:21.194Z,59.60
2023-04-15T03:17:49.450Z,51.50
2023-04-15T03:20:17.692Z,51.80
2023-04-15T03:22:45.388Z,57.47
2023-04-15T03:25:14.537Z,57.40
2023-04-15T03:27:42.679Z,54.93
2023-04-15T03:30:11.238Z,67.60
2023-04-15T03:32:38.950Z,57.80
2023-04-15T03:35:07.470Z,61.10
2023-04-15T03:37:35.070Z,64.57
2023-04-15T03:40:03.073Z,61.00
2023-04-15T03:42:32.166Z,57.90
2023-04-15T03:45:00.705Z,62.60
2023-04-15T03:47:28.371Z,65.50
2023-04-15T03:49:56.012Z,75.70
2023-04-15T03:52:23.638Z,83.33
2023-04-15T03:54:51.444Z,96.90
2023-04-15T03:57:18.997Z,96.37
2023-04-15T03:59:47.999Z,91.20
2023-04-15T04:02:15.644Z,115.57
2023-04-15T04:04:43.877Z,132.37
2023-04-15T04:07:16.656Z,133.90
2023-04-15T04:09:46.158Z,116.23
2023-04-15T04:12:14.915Z,161.87
2023-04-15T04:14:42.643Z,220.80
2023-04-15T04:17:11.867Z,177.90
2023-04-15T04:19:39.513Z,286.50
2023-04-15T04:22:07.373Z,291.10
2023-04-15T04:24:35.030Z,296.50
2023-04-15T04:27:02.705Z,304.53
2023-04-15T04:29:30.683Z,320.50
2023-04-15T04:31:58.416Z,312.57
2023-04-15T04:34:27.405Z,328.37
2023-04-15T04:36:55.096Z,281.83
2023-04-15T04:39:23.238Z,275.47
2023-04-15T04:41:52.112Z,282.30
2023-04-15T04:44:20.240Z,330.83
2023-04-15T04:46:47.957Z,284.63
2023-04-15T04:49:15.566Z,305.90
2023-04-15T04:51:45.244Z,303.00
2023-04-15T04:54:12.885Z,268.70
2023-04-15T04:56:40.973Z,289.57
2023-04-15T04:59:09.509Z,269.67
2023-04-15T05:01:37.547Z,241.93
2023-04-15T05:04:06.204Z,236.10
2023-04-15T05:06:33.984Z,287.20
2023-04-15T05:09:03.460Z,281.70
2023-04-15T05:11:31.401Z,245.13
2023-04-15T05:13:59.760Z,293.27
2023-04-15T05:16:27.385Z,268.30
2023-04-15T05:18:55.132Z,262.23
2023-04-15T05:21:22.919Z,265.53
2023-04-15T05:23:50.940Z,245.93
2023-04-15T05:26:20.068Z,226.17
2023-04-15T05:28:47.927Z,233.37
2023-04-15T05:31:15.668Z,199.07
2023-04-15T05:33:43.448Z,238.90
2023-04-15T05:36:12.097Z,206.53
2023-04-15T05:38:39.718Z,232.20
2023-04-15T05:41:07.482Z,218.47
2023-04-15T05:43:36.533Z,233.50
2023-04-15T05:46:04.213Z,229.20
2023-04-15T05:48:31.909Z,239.83
2023-04-15T05:50:59.642Z,211.23
2023-04-15T05:53:27.251Z,214.47
2023-04-15T05:55:54.831Z,196.60
2023-04-15T05:58:22.582Z,161.57
2023-04-15T06:00:52.211Z,167.73
2023-04-15T06:03:19.996Z,115.90
2023-04-15T06:05:48.314Z,62.23
2023-04-15T06:08:15.998Z,60.07
2023-04-15T06:10:43.755Z,57.93
2023-04-15T06:13:11.349Z,63.83
2023-04-15T06:15:39.009Z,60.47
2023-04-15T06:18:07.974Z,61.10
2023-04-15T06:20:36.646Z,63.00
2023-04-15T06:23:04.271Z,63.27
2023-04-15T06:25:31.986Z,64.77
2023-04-15T06:27:59.620Z,62.23
2023-04-15T06:30:27.341Z,62.50
2023-04-15T06:32:56.374Z,63.70
2023-04-15T06:35:25.399Z,62.60
2023-04-15T06:37:52.960Z,68.10
2023-04-15T06:40:20.545Z,69.97
2023-04-15T06:42:48.163Z,70.40
2023-04-15T06:45:15.931Z,77.87
2023-04-15T06:47:43.574Z,79.60
2023-04-15T06:50:11.726Z,78.67
2023-04-15T06:52:40.955Z,76.10
2023-04-15T06:55:09.977Z,74.13
2023-04-15T06:57:37.551Z,69.43
2023-04-15T07:00:05.881Z,74.00
2023-04-15T07:02:33.607Z,72.40
2023-04-15T07:05:01.673Z,71.67
2023-04-15T07:07:29.338Z,70.87
2023-04-15T07:09:58.327Z,69.30
2023-04-15T07:12:26.081Z,63.70
2023-04-15T07:14:53.672Z,66.37
2023-04-15T07:17:21.542Z,62.63
2023-04-15T07:19:49.279Z,68.30
2023-04-15T07:22:16.873Z,63.97
2023-04-15T07:24:44.507Z,60.90
2023-04-15T07:27:13.545Z,59.33
2023-04-15T07:29:41.388Z,56.30
2023-04-15T07:32:10.453Z,58.00
2023-04-15T07:34:38.578Z,53.37
2023-04-15T07:37:06.173Z,54.40
2023-04-15T07:39:33.764Z,52.30
2023-04-15T07:42:02.107Z,53.03
2023-04-15T07:44:31.637Z,52.77
2023-04-15T07:46:59.377Z,53.43
2023-04-15T07:49:26.987Z,52.97
2023-04-15T07:51:54.871Z,55.90
2023-04-15T07:54:22.455Z,52.57
2023-04-15T07:56:50.554Z,52.57
2023-04-15T07:59:18.859Z,55.70
2023-04-15T08:01:48.242Z,54.50
2023-04-15T08:04:16.142Z,52.53
2023-04-15T08:06:43.996Z,50.67
2023-04-15T08:09:11.871Z,52.50
2023-04-15T08:11:39.489Z,53.40
2023-04-15T08:14:07.124Z,50.10
2023-04-15T08:16:35.098Z,49.30
2023-04-15T08:19:04.690Z,49.83
2023-04-15T08:21:32.742Z,48.97
2023-04-15T08:24:01.684Z,47.83
2023-04-15T08:26:29.341Z,48.97
2023-04-15T08:28:57.423Z,50.17
2023-04-15T08:31:25.320Z,45.70
2023-04-15T08:33:54.489Z,49.03
2023-04-15T08:36:23.500Z,45.50
2023-04-15T08:38:51.193Z,48.10
2023-04-15T08:41:23.694Z,47.40
2023-04-15T08:43:55.525Z,48.17
2023-04-15T08:46:23.721Z,47.20
2023-04-15T08:48:52.217Z,44.97
2023-04-15T08:51:20.265Z,45.67
2023-04-15T08:53:50.806Z,45.13
2023-04-15T08:56:20.244Z,47.43
2023-04-15T08:58:48.828Z,47.30
2023-04-15T09:01:16.952Z,48.00
2023-04-15T09:03:45.664Z,46.90
2023-04-15T09:06:13.767Z,48.67
2023-04-15T09:08:41.362Z,46.50
2023-04-15T09:11:10.377Z,48.47
2023-04-15T09:13:38.154Z,46.70
2023-04-15T09:16:08.381Z,46.97
2023-04-15T09:18:38.129Z,45.60
2023-04-15T09:21:09.380Z,44.37
2023-04-15T09:23:37.915Z,45.80
2023-04-15T09:26:06.356Z,46.70
2023-04-15T09:28:43.055Z,44.43
2023-04-15T09:31:11.955Z,42.27
2023-04-15T09:33:56.736Z,42.07
2023-04-15T09:36:25.154Z,44.73
2023-04-15T09:38:56.683Z,42.00
2023-04-15T09:41:25.243Z,42.90
2023-04-15T09:43:54.330Z,45.33
2023-04-15T09:46:22.042Z,41.70
2023-04-15T09:49:08.866Z,42.33
2023-04-15T09:51:37.387Z,42.63
2023-04-15T09:54:05.666Z,43.20
2023-04-15T09:56:36.184Z,42.23
2023-04-15T09:59:07.106Z,40.97
2023-04-15T10:01:34.978Z,42.47
2023-04-15T10:04:05.281Z,44.67
2023-04-15T10:06:33.485Z,43.77
2023-04-15T10:09:01.896Z,43.00
2023-04-15T10:11:31.793Z,42.93
2023-04-15T10:14:00.521Z,42.90
2023-04-15T10:16:30.947Z,41.50
2023-04-15T10:18:59.400Z,39.90
2023-04-15T10:21:28.931Z,41.57
2023-04-15T10:23:57.224Z,39.07
2023-04-15T10:26:25.771Z,40.43
2023-04-15T10:28:54.401Z,38.43
2023-04-15T10:31:22.956Z,38.87
2023-04-15T10:33:52.987Z,40.57
2023-04-15T10:36:21.379Z,39.00
2023-04-15T10:38:49.040Z,38.43
2023-04-15T10:41:20.778Z,38.73
2023-04-15T10:43:51.256Z,41.60
2023-04-15T10:46:20.950Z,40.63
2023-04-15T10:48:50.165Z,40.17
2023-04-15T10:51:28.039Z,39.83
2023-04-15T10:53:58.810Z,41.80
2023-04-15T10:56:26.810Z,39.23
2023-04-15T10:58:54.515Z,41.10
2023-04-15T11:01:23.836Z,38.77
2023-04-15T11:03:52.192Z,41.23
2023-04-15T11:06:21.405Z,40.53
2023-04-15T11:09:03.305Z,40.23
2023-04-15T11:12:08.256Z,42.87
2023-04-15T11:14:41.547Z,42.80
2023-04-15T11:17:09.192Z,41.87
2023-04-15T11:19:38.796Z,43.37
2023-04-15T11:22:11.748Z,40.70
2023-04-15T11:24:48.627Z,42.07
2023-04-15T11:27:22.567Z,45.50
2023-04-15T11:29:50.230Z,41.33
2023-04-15T11:32:17.955Z,40.63
2023-04-15T11:34:48.486Z,42.50
2023-04-15T11:37:17.475Z,41.60
2023-04-15T11:39:45.151Z,39.50
2023-04-15T11:42:18.162Z,39.50
2023-04-15T11:44:45.901Z,41.23
2023-04-15T11:47:23.792Z,39.47
2023-04-15T11:49:51.633Z,38.47
2023-04-15T11:52:20.673Z,39.43
2023-04-15T11:54:48.380Z,42.17
2023-04-15T11:57:16.257Z,39.10
2023-04-15T11:59:45.964Z,38.03
2023-04-15T12:02:14.566Z,39.30
2023-04-15T12:04:42.706Z,42.60
2023-04-15T12:07:10.857Z,42.07
2023-04-15T12:09:40.073Z,39.40
2023-04-15T12:12:07.806Z,40.70
2023-04-15T12:14:35.513Z,41.30
2023-04-15T12:17:05.007Z,40.03
2023-04-15T12:19:37.144Z,41.20
2023-04-15T12:22:06.553Z,42.10
2023-04-15T12:24:35.869Z,42.70
2023-04-15T12:27:06.818Z,41.53
2023-04-15T12:29:35.899Z,41.00
2023-04-15T12:32:07.007Z,40.33
2023-04-15T12:34:36.027Z,41.93
2023-04-15T12:37:05.271Z,39.83
2023-04-15T12:39:35.954Z,40.83
2023-04-15T12:42:05.589Z,40.07
2023-04-15T12:44:35.696Z,39.03
2023-04-15T12:47:03.706Z,38.30
2023-04-15T12:49:32.640Z,38.67
2023-04-15T12:52:01.494Z,39.27
2023-04-15T12:54:29.700Z,38.00
2023-04-15T12:56:57.991Z,38.30
2023-04-15T12:59:27.055Z,38.47
2023-04-15T13:01:55.036Z,39.30
2023-04-15T13:04:23.623Z,38.80
2023-04-15T13:06:51.381Z,39.97
2023-04-15T13:09:19.064Z,38.20
2023-04-15T13:11:46.979Z,38.60
2023-04-15T13:14:14.757Z,39.27
2023-04-15T13:16:44.162Z,37.80
2023-04-15T13:19:11.811Z,39.40
2023-04-15T13:21:39.527Z,38.57
2023-04-15T13:24:08.165Z,40.60
2023-04-15T13:26:36.107Z,39.53
2023-04-15T13:29:03.893Z,38.27
2023-04-15T13:31:31.591Z,37.30
2023-04-15T13:34:00.907Z,38.63
2023-04-15T13:36:28.626Z,39.40
2023-04-15T13:38:57.091Z,37.20
2023-04-15T13:41:24.790Z,37.77
2023-04-15T13:43:52.419Z,36.23
2023-04-15T13:46:21.442Z,35.43
2023-04-15T13:48:49.157Z,37.27
2023-04-15T13:51:18.093Z,34.77
2023-04-15T13:53:45.756Z,35.70
2023-04-15T13:56:13.558Z,36.23
2023-04-15T13:58:41.928Z,35.47
2023-04-15T14:01:09.605Z,35.77
2023-04-15T14:03:37.380Z,34.73
2023-04-15T14:06:06.122Z,33.97
2023-04-15T14:08:35.244Z,34.40
2023-04-15T14:11:02.846Z,32.87
2023-04-15T14:13:30.431Z,34.00
2023-04-15T14:15:58.226Z,35.07
2023-04-15T14:18:26.210Z,34.90
2023-04-15T14:20:54.009Z,34.50
2023-04-15T14:23:21.671Z,35.10
2023-04-15T14:25:51.711Z,35.27
2023-04-15T14:28:19.371Z,34.80
2023-04-15T14:30:47.810Z,36.80
2023-04-15T14:33:15.617Z,35.60
2023-04-15T14:35:43.361Z,35.43
2023-04-15T14:38:11.517Z,35.93
2023-04-15T14:40:39.404Z,34.07
2023-04-15T14:43:08.428Z,35.50
2023-04-15T14:45:36.373Z,35.23
2023-04-15T14:48:04.622Z,34.90
2023-04-15T14:50:32.270Z,35.23
2023-04-15T14:53:00.249Z,34.80
2023-04-15T14:55:27.926Z,36.90
2023-04-15T14:57:55.555Z,36.60
2023-04-15T15:00:24.608Z,37.50
2023-04-15T15:02:52.283Z,41.00
2023-04-15T15:05:20.245Z,35.67
2023-04-15T15:07:48.067Z,35.93
2023-04-15T15:10:15.755Z,34.27
2023-04-15T15:12:43.501Z,33.77
2023-04-15T15:15:25.194Z,32.50
2023-04-15T15:17:57.883Z,33.20
2023-04-15T15:20:26.081Z,32.83
2023-04-15T15:22:53.984Z,33.47
2023-04-15T15:25:21.871Z,33.73
2023-04-15T15:27:49.955Z,34.67
2023-04-15T15:30:17.754Z,33.90
2023-04-15T15:32:45.770Z,35.00
2023-04-15T15:35:14.930Z,34.50
2023-04-15T15:37:43.368Z,34.70
2023-04-15T15:40:12.357Z,35.70
2023-04-15T15:42:39.968Z,35.00
2023-04-15T15:45:08.465Z,34.23
2023-04-15T15:47:36.281Z,34.53
2023-04-15T15:50:06.039Z,35.20
2023-04-15T15:52:35.208Z,33.97
2023-04-15T15:55:02.892Z,35.37
2023-04-15T15:57:30.499Z,34.87
2023-04-15T16:00:10.407Z,35.20
2023-04-15T16:03:05.132Z,34.57
2023-04-15T16:05:27.373Z,33.80
2023-04-15T16:07:56.302Z,37.00
2023-04-15T16:10:24.333Z,35.27
2023-04-15T16:12:51.955Z,35.07
2023-04-15T16:15:19.945Z,34.37
2023-04-15T16:17:47.737Z,34.00
2023-04-15T16:20:15.454Z,34.50
2023-04-15T16:22:43.343Z,33.00
2023-04-15T16:25:12.384Z,34.07
2023-04-15T16:27:57.217Z,33.80
2023-04-15T16:30:27.042Z,34.77
2023-04-15T16:32:54.758Z,33.93
2023-04-15T16:35:22.519Z,34.30
2023-04-15T16:37:50.367Z,33.10
2023-04-15T16:40:19.631Z,33.20
2023-04-15T16:42:47.261Z,34.40
2023-04-15T16:45:14.992Z,34.97
2023-04-15T16:47:43.385Z,34.67
2023-04-15T16:50:11.975Z,34.33
2023-04-15T16:52:39.557Z,35.03
2023-04-15T16:55:07.772Z,34.80
2023-04-15T16:57:50.624Z,33.87
2023-04-15T17:00:24.347Z,36.07
2023-04-15T17:02:52.248Z,34.60
2023-04-15T17:05:20.121Z,34.00
2023-04-15T17:07:47.814Z,37.20
2023-04-15T17:10:15.503Z,36.30
2023-04-15T17:12:44.499Z,35.50
2023-04-15T17:15:12.189Z,35.97
2023-04-15T17:17:39.912Z,35.27
2023-04-15T17:20:08.143Z,36.67
2023-04-15T17:22:35.769Z,36.10
2023-04-15T17:25:04.588Z,36.60
2023-04-15T17:27:32.264Z,35.57
2023-04-15T17:30:01.292Z,35.27
2023-04-15T17:32:31.759Z,35.67
2023-04-15T17:34:59.614Z,36.20
2023-04-15T17:37:27.819Z,35.07
2023-04-15T17:39:55.420Z,37.40
2023-04-15T17:42:23.172Z,35.20
2023-04-15T17:44:50.848Z,35.47
2023-04-15T17:47:20.322Z,36.60
2023-04-15T17:49:48.056Z,34.70
2023-04-15T17:52:15.926Z,35.67
2023-04-15T17:54:43.656Z,36.20
2023-04-15T17:57:11.390Z,37.37
2023-04-15T17:59:43.760Z,36.30
2023-04-15T18:02:11.613Z,36.07
2023-04-15T18:04:40.923Z,34.97
2023-04-15T18:07:08.908Z,35.80
2023-04-15T18:09:37.134Z,35.33
2023-04-15T18:12:07.428Z,35.63
2023-04-15T18:14:35.257Z,37.13
2023-04-15T18:17:03.397Z,35.40
2023-04-15T18:19:31.651Z,35.57
2023-04-15T18:22:00.947Z,36.40
2023-04-15T18:24:28.888Z,35.60
2023-04-15T18:26:57.055Z,35.53
2023-04-15T18:29:25.293Z,34.83
2023-04-15T18:31:53.126Z,37.13
2023-04-15T18:34:20.801Z,34.87
2023-04-15T18:36:48.511Z,33.70
2023-04-15T18:39:17.480Z,34.83
2023-04-15T18:41:45.215Z,33.80
2023-04-15T18:44:12.834Z,34.13
2023-04-15T18:46:40.890Z,32.90
2023-04-15T18:49:08.884Z,33.90
2023-04-15T18:51:36.843Z,34.27
2023-04-15T18:54:04.596Z,34.80
2023-04-15T18:56:33.648Z,34.20
2023-04-15T18:59:09.825Z,34.57
2023-04-15T19:01:49.429Z,35.50
2023-04-15T19:04:17.157Z,34.90
2023-04-15T19:06:45.290Z,33.47
2023-04-15T19:09:12.875Z,33.93
2023-04-15T19:11:41.919Z,34.53
2023-04-15T19:14:09.533Z,33.00
2023-04-15T19:16:37.244Z,33.07
2023-04-15T19:19:06.415Z,35.03
2023-04-15T19:21:34.391Z,31.80
2023-04-15T19:24:02.221Z,31.60
2023-04-15T19:26:30.405Z,33.13
2023-04-15T19:28:59.375Z,32.00
2023-04-15T19:31:26.965Z,31.83
2023-04-15T19:33:54.551Z,34.10
2023-04-15T19:36:22.210Z,33.27
2023-04-15T19:38:49.827Z,32.10
2023-04-15T19:41:17.401Z,32.83
2023-04-15T19:43:45.028Z,33.43
2023-04-15T19:46:14.136Z,33.10
2023-04-15T19:48:41.758Z,33.23
2023-04-15T19:51:09.375Z,33.33
2023-04-15T19:53:37.188Z,33.03
2023-04-15T19:56:04.798Z,32.30
2023-04-15T19:58:32.613Z,32.77
2023-04-15T20:01:01.364Z,34.07
2023-04-15T20:03:30.652Z,32.83
2023-04-15T20:05:58.722Z,32.10
2023-04-15T20:08:26.284Z,30.80
2023-04-15T20:10:53.909Z,32.50
2023-04-15T20:13:21.601Z,31.80
2023-04-15T20:15:49.504Z,31.60
2023-04-15T20:18:17.134Z,31.17
2023-04-15T20:20:46.393Z,32.70
2023-04-15T20:23:14.020Z,32.13
2023-04-15T20:25:43.037Z,32.03
2023-04-15T20:28:10.728Z,30.87
2023-04-15T20:30:39.406Z,30.83
2023-04-15T20:33:08.115Z,33.17
2023-04-15T20:35:35.895Z,32.73
2023-04-15T20:38:05.611Z,32.93
2023-04-15T20:40:33.793Z,32.40
2023-04-15T20:43:01.471Z,31.10
2023-04-15T20:45:29.106Z,32.60
2023-04-15T20:47:56.799Z,33.17
2023-04-15T20:50:24.394Z,33.60
2023-04-15T20:52:51.998Z,33.43
2023-04-15T20:55:21.558Z,34.03
2023-04-15T20:57:49.376Z,32.47
2023-04-15T21:00:17.240Z,33.10
2023-04-15T21:02:44.863Z,32.90
2023-04-15T21:05:12.813Z,34.70
2023-04-15T21:07:40.977Z,33.17
2023-04-15T21:10:09.057Z,34.13
2023-04-15T21:12:40.761Z,33.93
2023-04-15T21:15:09.381Z,33.20
2023-04-15T21:17:37.007Z,31.90
2023-04-15T21:20:05.116Z,32.57
2023-04-15T21:22:33.314Z,32.53
2023-04-15T21:25:00.956Z,32.60
2023-04-15T21:27:28.552Z,33.00
2023-04-15T21:29:57.485Z,32.20
2023-04-15T21:32:25.077Z,31.53
2023-04-15T21:34:52.677Z,33.97
2023-04-15T21:37:20.264Z,32.97
2023-04-15T21:39:47.868Z,34.07
2023-04-15T21:42:15.635Z,34.13
2023-04-15T21:44:43.237Z,33.07
2023-04-15T21:47:12.285Z,35.03
2023-04-15T21:49:39.982Z,34.73
2023-04-15T21:52:07.584Z,34.17
2023-04-15T21:54:37.911Z,34.33
2023-04-15T21:57:05.511Z,34.77
2023-04-15T21:59:33.115Z,34.47
2023-04-15T22:02:00.846Z,34.97
2023-04-15T22:04:29.994Z,35.57
2023-04-15T22:07:01.532Z,33.93
2023-04-15T22:09:29.702Z,34.53
2023-04-15T22:11:59.213Z,33.70
2023-04-15T22:14:26.933Z,34.60
2023-04-15T22:16:55.085Z,33.57
2023-04-15T22:19:22.899Z,34.17
2023-04-15T22:21:52.191Z,33.40
2023-04-15T22:24:39.260Z,35.00
2023-04-15T22:27:07.448Z,33.77
2023-04-15T22:29:35.767Z,35.30
2023-04-15T22:32:03.353Z,36.00
2023-04-15T22:34:30.948Z,34.43
2023-04-15T22:36:59.920Z,32.93
2023-04-15T22:39:27.618Z,33.30
2023-04-15T22:41:56.662Z,34.43
2023-04-15T22:44:24.255Z,33.33
2023-04-15T22:46:51.993Z,35.70
2023-04-15T22:49:19.758Z,33.00
2023-04-15T22:51:47.384Z,33.93
2023-04-15T22:54:16.342Z,34.60
2023-04-15T22:56:43.892Z,34.27
2023-04-15T22:59:11.626Z,34.73
2023-04-15T23:01:39.474Z,35.33
2023-04-15T23:04:23.766Z,34.10
2023-04-15T23:06:54.380Z,33.57
2023-04-15T23:09:23.490Z,34.77
2023-04-15T23:11:51.108Z,36.37
2023-04-15T23:14:18.702Z,35.80
2023-04-15T23:16:46.369Z,35.97
2023-04-15T23:19:14.001Z,35.40
2023-04-15T23:21:41.589Z,36.00
2023-04-15T23:24:09.712Z,33.00
2023-04-15T23:26:38.642Z,34.40
2023-04-15T23:29:06.363Z,34.80
2023-04-15T23:31:34.058Z,34.07
2023-04-15T23:34:01.752Z,34.03
2023-04-15T23:36:29.358Z,34.30
2023-04-15T23:38:56.958Z,34.60
2023-04-15T23:41:24.577Z,34.23
2023-04-15T23:43:53.504Z,32.93
2023-04-15T23:46:21.075Z,35.10
2023-04-15T23:48:49.082Z,34.67
2023-04-15T23:51:17.934Z,35.30
2023-04-15T23:53:46.186Z,33.73
2023-04-15T23:56:13.849Z,32.93
2023-04-15T23:58:41.477Z,31.93
